sensor_id;sensor_type;location;lat;lon;timestamp;temperature;humidity
63202;DHT22;49296;48.188;11.566;2023-06-01T00:00:08;19.84;52.03
63202;DHT22;49296;48.188;11.566;2023-06-01T00:02:36;19.81;51.97
63202;DHT22;49296;48.188;11.566;2023-06-01T00:05:03;19.78;52.29
63202;DHT22;49296;48.188;11.566;2023-06-01T00:07:31;19.78;52.23
63202;DHT22;49296;48.188;11.566;2023-06-01T00:09:58;19.79;52.30
63202;DHT22;49296;48.188;11.566;2023-06-01T00:12:24;19.73;52.39
63202;DHT22;49296;48.188;11.566;2023-06-01T00:14:51;19.68;52.51
63202;DHT22;49296;48.188;11.566;2023-06-01T00:17:18;19.68;52.42
63202;DHT22;49296;48.188;11.566;2023-06-01T00:19:45;19.63;52.80
63202;DHT22;49296;48.188;11.566;2023-06-01T00:22:13;19.58;52.71
63202;DHT22;49296;48.188;11.566;2023-06-01T00:24:42;19.63;52.62
63202;DHT22;49296;48.188;11.566;2023-06-01T00:27:08;19.57;52.59
63202;DHT22;49296;48.188;11.566;2023-06-01T00:29:35;19.57;52.84
63202;DHT22;49296;48.188;11.566;2023-06-01T00:32:02;19.56;52.79
63202;DHT22;49296;48.188;11.566;2023-06-01T00:34:28;19.58;52.76
63202;DHT22;49296;48.188;11.566;2023-06-01T00:36:55;19.51;52.87
63202;DHT22;49296;48.188;11.566;2023-06-01T00:39:22;19.53;52.93
63202;DHT22;49296;48.188;11.566;2023-06-01T00:41:49;19.56;52.88
63202;DHT22;49296;48.188;11.566;2023-06-01T00:44:16;19.54;52.94
63202;DHT22;49296;48.188;11.566;2023-06-01T00:46:43;19.50;53.00
63202;DHT22;49296;48.188;11.566;2023-06-01T00:49:10;19.39;52.98
63202;DHT22;49296;48.188;11.566;2023-06-01T00:51:37;19.36;53.38
63202;DHT22;49296;48.188;11.566;2023-06-01T00:54:03;19.37;53.10
63202;DHT22;49296;48.188;11.566;2023-06-01T00:56:30;19.30;53.27
63202;DHT22;49296;48.188;11.566;2023-06-01T00:59:00;19.30;53.34
63202;DHT22;49296;48.188;11.566;2023-06-01T01:01:27;19.29;53.24
63202;DHT22;49296;48.188;11.566;2023-06-01T01:03:54;19.26;53.23
63202;DHT22;49296;48.188;11.566;2023-06-01T01:06:34;19.23;53.34
63202;DHT22;49296;48.188;11.566;2023-06-01T01:09:17;19.20;53.41
63202;DHT22;49296;48.188;11.566;2023-06-01T01:11:52;19.19;53.50
63202;DHT22;49296;48.188;11.566;2023-06-01T01:14:25;19.14;53.59
63202;DHT22;49296;48.188;11.566;2023-06-01T01:16:58;19.11;53.64
63202;DHT22;49296;48.188;11.566;2023-06-01T01:19:48;19.02;53.77
63202;DHT22;49296;48.188;11.566;2023-06-01T01:22:25;19.04;53.88
63202;DHT22;49296;48.188;11.566;2023-06-01T01:25:16;19.02;53.91
63202;DHT22;49296;48.188;11.566;2023-06-01T01:27:57;18.99;53.87
63202;DHT22;49296;48.188;11.566;2023-06-01T01:30:28;18.97;54.01
63202;DHT22;49296;48.188;11.566;2023-06-01T01:32:57;18.89;54.29
63202;DHT22;49296;48.188;11.566;2023-06-01T01:35:26;18.94;54.18
63202;DHT22;49296;48.188;11.566;2023-06-01T01:37:54;18.91;54.07
63202;DHT22;49296;48.188;11.566;2023-06-01T01:40:21;18.87;54.24
63202;DHT22;49296;48.188;11.566;2023-06-01T01:42:50;18.83;54.32
63202;DHT22;49296;48.188;11.566;2023-06-01T01:45:17;18.80;54.49
63202;DHT22;49296;48.188;11.566;2023-06-01T01:47:51;18.74;54.73
63202;DHT22;49296;48.188;11.566;2023-06-01T01:50:25;18.68;54.69
63202;DHT22;49296;48.188;11.566;2023-06-01T01:52:53;18.64;54.58
63202;DHT22;49296;48.188;11.566;2023-06-01T01:55:21;18.63;54.78
63202;DHT22;49296;48.188;11.566;2023-06-01T01:57:50;18.60;54.64
63202;DHT22;49296;48.188;11.566;2023-06-01T02:00:17;18.52;54.82
63202;DHT22;49296;48.188;11.566;2023-06-01T02:02:46;18.36;54.95
63202;DHT22;49296;48.188;11.566;2023-06-01T02:05:13;18.43;54.92
63202;DHT22;49296;48.188;11.566;2023-06-01T02:07:39;18.40;55.00
63202;DHT22;49296;48.188;11.566;2023-06-01T02:10:07;18.39;54.99
63202;DHT22;49296;48.188;11.566;2023-06-01T02:12:34;18.36;55.12
63202;DHT22;49296;48.188;11.566;2023-06-01T02:15:00;18.29;55.20
63202;DHT22;49296;48.188;11.566;2023-06-01T02:17:27;18.28;55.27
63202;DHT22;49296;48.188;11.566;2023-06-01T02:19:55;18.22;55.27
63202;DHT22;49296;48.188;11.566;2023-06-01T02:22:21;18.24;55.27
63202;DHT22;49296;48.188;11.566;2023-06-01T02:24:48;18.18;55.47
63202;DHT22;49296;48.188;11.566;2023-06-01T02:27:15;18.24;55.34
63202;DHT22;49296;48.188;11.566;2023-06-01T02:29:41;18.21;55.31
63202;DHT22;49296;48.188;11.566;2023-06-01T02:32:08;18.18;55.59
63202;DHT22;49296;48.188;11.566;2023-06-01T02:34:35;18.15;55.58
63202;DHT22;49296;48.188;11.566;2023-06-01T02:37:04;18.13;55.57
63202;DHT22;49296;48.188;11.566;2023-06-01T02:39:31;18.15;55.68
63202;DHT22;49296;48.188;11.566;2023-06-01T02:41:58;18.08;55.58
63202;DHT22;49296;48.188;11.566;2023-06-01T02:44:25;18.04;55.79
63202;DHT22;49296;48.188;11.566;2023-06-01T02:46:52;18.04;55.77
63202;DHT22;49296;48.188;11.566;2023-06-01T02:49:19;18.04;55.93
63202;DHT22;49296;48.188;11.566;2023-06-01T02:51:45;18.02;55.90
63202;DHT22;49296;48.188;11.566;2023-06-01T02:54:13;17.97;55.98
63202;DHT22;49296;48.188;11.566;2023-06-01T02:56:40;17.97;55.85
63202;DHT22;49296;48.188;11.566;2023-06-01T02:59:07;17.98;55.77
63202;DHT22;49296;48.188;11.566;2023-06-01T03:01:33;17.92;56.00
63202;DHT22;49296;48.188;11.566;2023-06-01T03:04:01;17.92;55.94
63202;DHT22;49296;48.188;11.566;2023-06-01T03:06:29;17.92;55.81
63202;DHT22;49296;48.188;11.566;2023-06-01T03:08:57;17.88;55.83
63202;DHT22;49296;48.188;11.566;2023-06-01T03:11:25;17.87;55.86
63202;DHT22;49296;48.188;11.566;2023-06-01T03:13:51;17.91;55.82
63202;DHT22;49296;48.188;11.566;2023-06-01T03:16:18;17.85;55.71
63202;DHT22;49296;48.188;11.566;2023-06-01T03:18:45;17.83;55.88
63202;DHT22;49296;48.188;11.566;2023-06-01T03:21:11;17.77;55.82
63202;DHT22;49296;48.188;11.566;2023-06-01T03:23:38;17.78;55.89
63202;DHT22;49296;48.188;11.566;2023-06-01T03:26:09;17.74;55.86
63202;DHT22;49296;48.188;11.566;2023-06-01T03:28:39;17.73;55.73
63202;DHT22;49296;48.188;11.566;2023-06-01T03:31:05;17.70;55.63
63202;DHT22;49296;48.188;11.566;2023-06-01T03:33:32;17.70;55.78
63202;DHT22;49296;48.188;11.566;2023-06-01T03:35:59;17.70;55.75
63202;DHT22;49296;48.188;11.566;2023-06-01T03:38:25;17.74;55.70
63202;DHT22;49296;48.188;11.566;2023-06-01T03:40:52;17.71;55.66
63202;DHT22;49296;48.188;11.566;2023-06-01T03:43:19;17.71;55.64
63202;DHT22;49296;48.188;11.566;2023-06-01T03:45:47;17.64;55.68
63202;DHT22;49296;48.188;11.566;2023-06-01T03:48:14;17.67;55.45
63202;DHT22;49296;48.188;11.566;2023-06-01T03:50:41;17.66;55.56
63202;DHT22;49296;48.188;11.566;2023-06-01T03:53:07;17.64;55.52
63202;DHT22;49296;48.188;11.566;2023-06-01T03:55:34;17.64;55.74
63202;DHT22;49296;48.188;11.566;2023-06-01T03:58:01;17.59;55.84
63202;DHT22;49296;48.188;11.566;2023-06-01T04:00:30;17.57;55.83
63202;DHT22;49296;48.188;11.566;2023-06-01T04:02:58;17.57;55.75
63202;DHT22;49296;48.188;11.566;2023-06-01T04:05:26;17.59;55.78
63202;DHT22;49296;48.188;11.566;2023-06-01T04:07:54;17.57;55.82
63202;DHT22;49296;48.188;11.566;2023-06-01T04:10:21;17.60;55.61
63202;DHT22;49296;48.188;11.566;2023-06-01T04:12:49;17.69;55.56
63202;DHT22;49296;48.188;11.566;2023-06-01T04:15:17;17.66;55.51
63202;DHT22;49296;48.188;11.566;2023-06-01T04:17:44;17.67;55.26
63202;DHT22;49296;48.188;11.566;2023-06-01T04:20:13;17.66;55.40
63202;DHT22;49296;48.188;11.566;2023-06-01T04:22:41;17.70;55.42
63202;DHT22;49296;48.188;11.566;2023-06-01T04:25:09;17.70;55.41
63202;DHT22;49296;48.188;11.566;2023-06-01T04:27:37;17.64;55.53
63202;DHT22;49296;48.188;11.566;2023-06-01T04:30:04;17.66;55.64
63202;DHT22;49296;48.188;11.566;2023-06-01T04:32:33;17.66;55.59
63202;DHT22;49296;48.188;11.566;2023-06-01T04:35:01;17.69;55.59
63202;DHT22;49296;48.188;11.566;2023-06-01T04:37:32;17.73;55.69
63202;DHT22;49296;48.188;11.566;2023-06-01T04:40:00;17.71;55.53
63202;DHT22;49296;48.188;11.566;2023-06-01T04:42:31;17.78;55.53
63202;DHT22;49296;48.188;11.566;2023-06-01T04:44:59;17.81;55.55
63202;DHT22;49296;48.188;11.566;2023-06-01T04:47:26;17.83;55.61
63202;DHT22;49296;48.188;11.566;2023-06-01T04:49:53;17.87;55.58
63202;DHT22;49296;48.188;11.566;2023-06-01T04:52:21;17.85;55.46
63202;DHT22;49296;48.188;11.566;2023-06-01T04:54:49;17.91;55.43
63202;DHT22;49296;48.188;11.566;2023-06-01T04:57:16;17.91;55.59
63202;DHT22;49296;48.188;11.566;2023-06-01T04:59:44;17.98;55.38
63202;DHT22;49296;48.188;11.566;2023-06-01T05:02:10;17.98;55.14
63202;DHT22;49296;48.188;11.566;2023-06-01T05:04:37;18.02;55.32
63202;DHT22;49296;48.188;11.566;2023-06-01T05:07:04;18.01;55.39
63202;DHT22;49296;48.188;11.566;2023-06-01T05:09:31;18.01;55.40
63202;DHT22;49296;48.188;11.566;2023-06-01T05:11:59;17.97;55.47
63202;DHT22;49296;48.188;11.566;2023-06-01T05:14:27;18.00;55.43
63202;DHT22;49296;48.188;11.566;2023-06-01T05:16:53;18.05;55.28
63202;DHT22;49296;48.188;11.566;2023-06-01T05:19:20;18.01;55.24
63202;DHT22;49296;48.188;11.566;2023-06-01T05:21:47;18.04;55.55
63202;DHT22;49296;48.188;11.566;2023-06-01T05:24:14;17.95;55.78
63202;DHT22;49296;48.188;11.566;2023-06-01T05:26:41;18.08;55.28
63202;DHT22;49296;48.188;11.566;2023-06-01T05:29:08;18.09;55.17
63202;DHT22;49296;48.188;11.566;2023-06-01T05:31:35;18.01;55.56
63202;DHT22;49296;48.188;11.566;2023-06-01T05:34:02;18.16;55.25
63202;DHT22;49296;48.188;11.566;2023-06-01T05:36:29;18.22;55.13
63202;DHT22;49296;48.188;11.566;2023-06-01T05:38:57;18.22;55.13
63202;DHT22;49296;48.188;11.566;2023-06-01T05:41:23;18.12;55.26
63202;DHT22;49296;48.188;11.566;2023-06-01T05:43:51;18.13;55.40
63202;DHT22;49296;48.188;11.566;2023-06-01T05:46:19;18.24;55.22
63202;DHT22;49296;48.188;11.566;2023-06-01T05:48:46;18.28;55.43
63202;DHT22;49296;48.188;11.566;2023-06-01T05:51:12;18.36;55.70
63202;DHT22;49296;48.188;11.566;2023-06-01T05:53:40;18.43;54.93
63202;DHT22;49296;48.188;11.566;2023-06-01T05:56:07;18.44;54.93
63202;DHT22;49296;48.188;11.566;2023-06-01T05:58:34;18.47;54.60
63202;DHT22;49296;48.188;11.566;2023-06-01T06:01:00;18.47;54.69
63202;DHT22;49296;48.188;11.566;2023-06-01T06:03:28;18.59;54.51
63202;DHT22;49296;48.188;11.566;2023-06-01T06:05:55;18.64;54.48
63202;DHT22;49296;48.188;11.566;2023-06-01T06:08:22;18.63;54.69
63202;DHT22;49296;48.188;11.566;2023-06-01T06:10:49;18.70;54.30
63202;DHT22;49296;48.188;11.566;2023-06-01T06:13:15;18.75;54.00
63202;DHT22;49296;48.188;11.566;2023-06-01T06:15:42;18.80;54.27
63202;DHT22;49296;48.188;11.566;2023-06-01T06:18:08;18.80;54.44
63202;DHT22;49296;48.188;11.566;2023-06-01T06:20:36;18.80;54.38
63202;DHT22;49296;48.188;11.566;2023-06-01T06:23:03;18.85;54.19
63202;DHT22;49296;48.188;11.566;2023-06-01T06:25:30;18.84;54.21
63202;DHT22;49296;48.188;11.566;2023-06-01T06:27:56;18.87;54.07
63202;DHT22;49296;48.188;11.566;2023-06-01T06:30:23;18.84;54.66
63202;DHT22;49296;48.188;11.566;2023-06-01T06:32:50;18.97;54.21
63202;DHT22;49296;48.188;11.566;2023-06-01T06:35:17;18.94;54.22
63202;DHT22;49296;48.188;11.566;2023-06-01T06:37:45;18.99;54.42
63202;DHT22;49296;48.188;11.566;2023-06-01T06:40:12;19.06;53.90
63202;DHT22;49296;48.188;11.566;2023-06-01T06:42:38;19.06;54.17
63202;DHT22;49296;48.188;11.566;2023-06-01T06:45:06;19.05;54.10
63202;DHT22;49296;48.188;11.566;2023-06-01T06:47:33;19.14;54.11
63202;DHT22;49296;48.188;11.566;2023-06-01T06:49:59;18.92;54.40
63202;DHT22;49296;48.188;11.566;2023-06-01T06:52:26;18.97;54.36
63202;DHT22;49296;48.188;11.566;2023-06-01T06:54:54;18.98;54.57
63202;DHT22;49296;48.188;11.566;2023-06-01T06:57:23;19.04;54.43
63202;DHT22;49296;48.188;11.566;2023-06-01T06:59:49;19.16;54.32
63202;DHT22;49296;48.188;11.566;2023-06-01T07:02:16;19.23;54.23
63202;DHT22;49296;48.188;11.566;2023-06-01T07:04:42;19.22;54.25
63202;DHT22;49296;48.188;11.566;2023-06-01T07:07:09;19.15;54.43
63202;DHT22;49296;48.188;11.566;2023-06-01T07:09:36;19.05;54.83
63202;DHT22;49296;48.188;11.566;2023-06-01T07:12:04;19.12;55.03
63202;DHT22;49296;48.188;11.566;2023-06-01T07:14:32;19.20;55.04
63202;DHT22;49296;48.188;11.566;2023-06-01T07:16:58;19.33;54.85
63202;DHT22;49296;48.188;11.566;2023-06-01T07:19:25;19.33;54.39
63202;DHT22;49296;48.188;11.566;2023-06-01T07:21:58;19.39;54.29
63202;DHT22;49296;48.188;11.566;2023-06-01T07:24:24;19.45;54.78
63202;DHT22;49296;48.188;11.566;2023-06-01T07:26:51;19.50;54.69
63202;DHT22;49296;48.188;11.566;2023-06-01T07:29:20;19.43;54.90
63202;DHT22;49296;48.188;11.566;2023-06-01T07:31:49;19.51;55.01
63202;DHT22;49296;48.188;11.566;2023-06-01T07:34:16;19.54;55.34
63202;DHT22;49296;48.188;11.566;2023-06-01T07:36:43;19.68;55.07
63202;DHT22;49296;48.188;11.566;2023-06-01T07:39:11;19.74;54.75
63202;DHT22;49296;48.188;11.566;2023-06-01T07:41:38;19.57;54.71
63202;DHT22;49296;48.188;11.566;2023-06-01T07:44:06;19.67;54.87
63202;DHT22;49296;48.188;11.566;2023-06-01T07:46:34;19.66;55.07
63202;DHT22;49296;48.188;11.566;2023-06-01T07:49:01;19.81;54.96
63202;DHT22;49296;48.188;11.566;2023-06-01T07:51:28;19.92;55.01
63202;DHT22;49296;48.188;11.566;2023-06-01T07:53:56;19.98;54.98
63202;DHT22;49296;48.188;11.566;2023-06-01T07:56:28;20.05;54.26
63202;DHT22;49296;48.188;11.566;2023-06-01T07:58:54;19.86;54.89
63202;DHT22;49296;48.188;11.566;2023-06-01T08:01:21;19.88;55.12
63202;DHT22;49296;48.188;11.566;2023-06-01T08:03:49;20.11;55.03
63202;DHT22;49296;48.188;11.566;2023-06-01T08:06:16;19.92;54.72
63202;DHT22;49296;48.188;11.566;2023-06-01T08:08:43;20.11;54.54
63202;DHT22;49296;48.188;11.566;2023-06-01T08:11:14;20.11;54.64
63202;DHT22;49296;48.188;11.566;2023-06-01T08:13:40;20.25;54.36
63202;DHT22;49296;48.188;11.566;2023-06-01T08:16:07;20.13;54.87
63202;DHT22;49296;48.188;11.566;2023-06-01T08:18:34;20.15;54.60
63202;DHT22;49296;48.188;11.566;2023-06-01T08:21:02;20.26;54.74
63202;DHT22;49296;48.188;11.566;2023-06-01T08:23:29;20.16;54.44
63202;DHT22;49296;48.188;11.566;2023-06-01T08:25:56;20.20;54.40
63202;DHT22;49296;48.188;11.566;2023-06-01T08:28:23;20.34;54.84
63202;DHT22;49296;48.188;11.566;2023-06-01T08:30:49;20.44;54.31
63202;DHT22;49296;48.188;11.566;2023-06-01T08:33:16;20.44;54.11
63202;DHT22;49296;48.188;11.566;2023-06-01T08:35:43;20.57;54.26
63202;DHT22;49296;48.188;11.566;2023-06-01T08:38:11;20.68;54.33
63202;DHT22;49296;48.188;11.566;2023-06-01T08:40:38;20.84;53.88
63202;DHT22;49296;48.188;11.566;2023-06-01T08:43:11;20.85;53.82
63202;DHT22;49296;48.188;11.566;2023-06-01T08:45:40;20.90;54.06
63202;DHT22;49296;48.188;11.566;2023-06-01T08:48:08;20.98;54.17
63202;DHT22;49296;48.188;11.566;2023-06-01T08:50:35;21.08;53.92
63202;DHT22;49296;48.188;11.566;2023-06-01T08:53:03;21.12;53.65
63202;DHT22;49296;48.188;11.566;2023-06-01T08:55:31;21.15;53.61
63202;DHT22;49296;48.188;11.566;2023-06-01T08:57:58;21.19;53.01
63202;DHT22;49296;48.188;11.566;2023-06-01T09:00:25;21.25;52.78
63202;DHT22;49296;48.188;11.566;2023-06-01T09:02:53;21.29;52.67
63202;DHT22;49296;48.188;11.566;2023-06-01T09:05:19;21.39;52.54
63202;DHT22;49296;48.188;11.566;2023-06-01T09:07:48;21.42;52.87
63202;DHT22;49296;48.188;11.566;2023-06-01T09:10:14;21.49;52.54
63202;DHT22;49296;48.188;11.566;2023-06-01T09:12:51;21.51;52.87
63202;DHT22;49296;48.188;11.566;2023-06-01T09:15:19;21.60;51.81
63202;DHT22;49296;48.188;11.566;2023-06-01T09:17:48;21.51;50.95
63202;DHT22;49296;48.188;11.566;2023-06-01T09:20:22;21.61;51.08
63202;DHT22;49296;48.188;11.566;2023-06-01T09:22:49;21.70;51.90
63202;DHT22;49296;48.188;11.566;2023-06-01T09:25:16;21.77;51.04
63202;DHT22;49296;48.188;11.566;2023-06-01T09:27:46;21.81;50.83
63202;DHT22;49296;48.188;11.566;2023-06-01T09:30:15;21.92;51.82
63202;DHT22;49296;48.188;11.566;2023-06-01T09:32:42;22.02;51.20
63202;DHT22;49296;48.188;11.566;2023-06-01T09:35:13;22.13;51.56
63202;DHT22;49296;48.188;11.566;2023-06-01T09:37:53;22.32;50.31
63202;DHT22;49296;48.188;11.566;2023-06-01T09:40:21;22.41;49.92
63202;DHT22;49296;48.188;11.566;2023-06-01T09:42:49;22.41;49.31
63202;DHT22;49296;48.188;11.566;2023-06-01T09:45:19;22.53;49.62
63202;DHT22;49296;48.188;11.566;2023-06-01T09:47:47;22.64;50.11
63202;DHT22;49296;48.188;11.566;2023-06-01T09:50:34;22.79;49.78
63202;DHT22;49296;48.188;11.566;2023-06-01T09:53:02;22.85;49.30
63202;DHT22;49296;48.188;11.566;2023-06-01T09:55:29;22.95;46.96
63202;DHT22;49296;48.188;11.566;2023-06-01T09:58:19;22.88;46.76
63202;DHT22;49296;48.188;11.566;2023-06-01T10:00:46;22.90;47.14
63202;DHT22;49296;48.188;11.566;2023-06-01T10:03:13;23.02;46.85
63202;DHT22;49296;48.188;11.566;2023-06-01T10:05:41;23.13;47.15
63202;DHT22;49296;48.188;11.566;2023-06-01T10:08:10;23.13;45.44
63202;DHT22;49296;48.188;11.566;2023-06-01T10:10:38;23.24;45.81
63202;DHT22;49296;48.188;11.566;2023-06-01T10:13:05;23.30;46.36
63202;DHT22;49296;48.188;11.566;2023-06-01T10:15:33;23.34;45.74
63202;DHT22;49296;48.188;11.566;2023-06-01T10:18:04;23.37;46.61
63202;DHT22;49296;48.188;11.566;2023-06-01T10:20:32;23.40;44.22
63202;DHT22;49296;48.188;11.566;2023-06-01T10:23:06;23.44;44.85
63202;DHT22;49296;48.188;11.566;2023-06-01T10:25:38;23.51;46.32
63202;DHT22;49296;48.188;11.566;2023-06-01T10:28:10;23.60;46.03
63202;DHT22;49296;48.188;11.566;2023-06-01T10:30:38;23.64;45.13
63202;DHT22;49296;48.188;11.566;2023-06-01T10:33:06;23.64;46.64
63202;DHT22;49296;48.188;11.566;2023-06-01T10:35:53;23.70;47.21
63202;DHT22;49296;48.188;11.566;2023-06-01T10:38:24;23.75;45.87
63202;DHT22;49296;48.188;11.566;2023-06-01T10:41:27;23.79;46.42
63202;DHT22;49296;48.188;11.566;2023-06-01T10:43:55;23.77;46.10
63202;DHT22;49296;48.188;11.566;2023-06-01T10:46:37;23.72;47.17
63202;DHT22;49296;48.188;11.566;2023-06-01T10:49:05;23.61;45.83
63202;DHT22;49296;48.188;11.566;2023-06-01T10:51:37;23.40;46.06
63202;DHT22;49296;48.188;11.566;2023-06-01T10:57:22;23.47;46.73
63202;DHT22;49296;48.188;11.566;2023-06-01T11:00:08;23.60;46.14
63202;DHT22;49296;48.188;11.566;2023-06-01T11:02:44;23.61;45.94
63202;DHT22;49296;48.188;11.566;2023-06-01T11:08:51;23.61;46.52
63202;DHT22;49296;48.188;11.566;2023-06-01T11:11:22;23.77;46.99
63202;DHT22;49296;48.188;11.566;2023-06-01T11:14:06;23.90;45.21
63202;DHT22;49296;48.188;11.566;2023-06-01T11:16:33;24.02;46.52
63202;DHT22;49296;48.188;11.566;2023-06-01T11:19:03;24.09;45.29
63202;DHT22;49296;48.188;11.566;2023-06-01T11:21:36;24.12;44.09
63202;DHT22;49296;48.188;11.566;2023-06-01T11:24:07;24.19;44.76
63202;DHT22;49296;48.188;11.566;2023-06-01T11:26:36;24.12;43.82
63202;DHT22;49296;48.188;11.566;2023-06-01T11:29:05;24.19;44.18
63202;DHT22;49296;48.188;11.566;2023-06-01T11:31:38;24.34;44.79
63202;DHT22;49296;48.188;11.566;2023-06-01T11:34:09;24.51;45.09
63202;DHT22;49296;48.188;11.566;2023-06-01T11:36:37;24.65;44.53
63202;DHT22;49296;48.188;11.566;2023-06-01T11:39:05;24.79;43.70
63202;DHT22;49296;48.188;11.566;2023-06-01T11:41:36;24.88;43.28
63202;DHT22;49296;48.188;11.566;2023-06-01T11:44:03;24.93;43.45
63202;DHT22;49296;48.188;11.566;2023-06-01T11:46:29;24.96;43.62
63202;DHT22;49296;48.188;11.566;2023-06-01T11:49:00;25.03;42.93
63202;DHT22;49296;48.188;11.566;2023-06-01T11:51:33;25.19;42.72
63202;DHT22;49296;48.188;11.566;2023-06-01T11:54:00;25.20;43.88
63202;DHT22;49296;48.188;11.566;2023-06-01T11:56:30;25.19;43.33
63202;DHT22;49296;48.188;11.566;2023-06-01T11:58:58;25.34;43.22
63202;DHT22;49296;48.188;11.566;2023-06-01T12:01:25;25.46;44.07
63202;DHT22;49296;48.188;11.566;2023-06-01T12:03:52;25.44;43.57
63202;DHT22;49296;48.188;11.566;2023-06-01T12:06:20;25.58;44.51
63202;DHT22;49296;48.188;11.566;2023-06-01T12:08:49;25.81;44.26
63202;DHT22;49296;48.188;11.566;2023-06-01T12:11:17;25.88;42.25
63202;DHT22;49296;48.188;11.566;2023-06-01T12:13:45;25.92;41.48
63202;DHT22;49296;48.188;11.566;2023-06-01T12:16:13;25.92;41.87
63202;DHT22;49296;48.188;11.566;2023-06-01T12:18:40;26.00;41.70
63202;DHT22;49296;48.188;11.566;2023-06-01T12:21:10;26.10;42.92
63202;DHT22;49296;48.188;11.566;2023-06-01T12:23:37;26.26;41.11
63202;DHT22;49296;48.188;11.566;2023-06-01T12:26:05;26.03;41.42
63202;DHT22;49296;48.188;11.566;2023-06-01T12:28:50;26.32;40.96
63202;DHT22;49296;48.188;11.566;2023-06-01T12:31:18;26.41;39.40
63202;DHT22;49296;48.188;11.566;2023-06-01T12:33:45;26.19;41.88
63202;DHT22;49296;48.188;11.566;2023-06-01T12:36:28;26.33;40.91
63202;DHT22;49296;48.188;11.566;2023-06-01T12:38:56;26.40;41.66
63202;DHT22;49296;48.188;11.566;2023-06-01T12:41:25;26.52;42.41
63202;DHT22;49296;48.188;11.566;2023-06-01T12:43:52;26.62;42.28
63202;DHT22;49296;48.188;11.566;2023-06-01T12:46:19;26.74;42.14
63202;DHT22;49296;48.188;11.566;2023-06-01T12:48:47;26.98;39.91
63202;DHT22;49296;48.188;11.566;2023-06-01T12:51:14;27.14;38.56
63202;DHT22;49296;48.188;11.566;2023-06-01T12:53:41;27.07;40.76
63202;DHT22;49296;48.188;11.566;2023-06-01T12:56:10;27.30;39.70
63202;DHT22;49296;48.188;11.566;2023-06-01T12:58:39;27.43;39.61
63202;DHT22;49296;48.188;11.566;2023-06-01T13:01:06;27.33;39.66
63202;DHT22;49296;48.188;11.566;2023-06-01T13:03:33;27.16;39.93
63202;DHT22;49296;48.188;11.566;2023-06-01T13:05:59;27.00;39.87
63202;DHT22;49296;48.188;11.566;2023-06-01T13:08:26;26.92;39.30
63202;DHT22;49296;48.188;11.566;2023-06-01T13:10:53;27.43;39.81
63202;DHT22;49296;48.188;11.566;2023-06-01T13:13:20;27.55;38.62
63202;DHT22;49296;48.188;11.566;2023-06-01T13:15:48;27.84;38.53
63202;DHT22;49296;48.188;11.566;2023-06-01T13:18:15;27.88;38.91
63202;DHT22;49296;48.188;11.566;2023-06-01T13:20:44;27.85;39.04
63202;DHT22;49296;48.188;11.566;2023-06-01T13:23:11;28.02;39.22
63202;DHT22;49296;48.188;11.566;2023-06-01T13:25:38;28.32;37.98
63202;DHT22;49296;48.188;11.566;2023-06-01T13:28:05;28.33;38.30
63202;DHT22;49296;48.188;11.566;2023-06-01T13:30:35;28.09;36.21
63202;DHT22;49296;48.188;11.566;2023-06-01T13:33:03;28.48;36.81
63202;DHT22;49296;48.188;11.566;2023-06-01T13:35:31;28.74;37.33
63202;DHT22;49296;48.188;11.566;2023-06-01T13:37:58;29.10;37.34
63202;DHT22;49296;48.188;11.566;2023-06-01T13:40:27;29.24;35.36
63202;DHT22;49296;48.188;11.566;2023-06-01T13:42:54;28.85;36.34
63202;DHT22;49296;48.188;11.566;2023-06-01T13:45:21;29.00;36.15
63202;DHT22;49296;48.188;11.566;2023-06-01T13:47:48;29.26;36.21
63202;DHT22;49296;48.188;11.566;2023-06-01T13:50:17;29.46;35.96
63202;DHT22;49296;48.188;11.566;2023-06-01T13:52:44;29.57;35.29
63202;DHT22;49296;48.188;11.566;2023-06-01T13:55:11;29.47;36.39
63202;DHT22;49296;48.188;11.566;2023-06-01T13:57:38;29.48;36.66
63202;DHT22;49296;48.188;11.566;2023-06-01T14:00:07;29.38;36.44
63202;DHT22;49296;48.188;11.566;2023-06-01T14:02:35;29.10;35.96
63202;DHT22;49296;48.188;11.566;2023-06-01T14:05:01;29.23;35.78
63202;DHT22;49296;48.188;11.566;2023-06-01T14:07:30;29.40;35.42
63202;DHT22;49296;48.188;11.566;2023-06-01T14:09:57;29.17;34.61
63202;DHT22;49296;48.188;11.566;2023-06-01T14:12:24;29.30;34.35
63202;DHT22;49296;48.188;11.566;2023-06-01T14:14:50;29.53;34.47
63202;DHT22;49296;48.188;11.566;2023-06-01T14:17:17;29.03;34.36
63202;DHT22;49296;48.188;11.566;2023-06-01T14:19:43;28.96;34.47
63202;DHT22;49296;48.188;11.566;2023-06-01T14:22:10;29.22;34.33
63202;DHT22;49296;48.188;11.566;2023-06-01T14:24:38;29.13;33.58
63202;DHT22;49296;48.188;11.566;2023-06-01T14:27:05;29.06;33.59
63202;DHT22;49296;48.188;11.566;2023-06-01T14:29:32;29.31;33.83
63202;DHT22;49296;48.188;11.566;2023-06-01T14:31:59;29.44;33.90
63202;DHT22;49296;48.188;11.566;2023-06-01T14:34:26;29.54;34.08
63202;DHT22;49296;48.188;11.566;2023-06-01T14:36:52;29.29;34.03
63202;DHT22;49296;48.188;11.566;2023-06-01T14:39:19;29.47;33.19
63202;DHT22;49296;48.188;11.566;2023-06-01T14:41:47;28.91;32.18
63202;DHT22;49296;48.188;11.566;2023-06-01T14:44:14;28.39;33.23
63202;DHT22;49296;48.188;11.566;2023-06-01T14:46:40;28.28;33.02
63202;DHT22;49296;48.188;11.566;2023-06-01T14:49:07;28.54;32.04
63202;DHT22;49296;48.188;11.566;2023-06-01T14:51:34;28.69;32.37
63202;DHT22;49296;48.188;11.566;2023-06-01T14:54:02;29.19;32.92
63202;DHT22;49296;48.188;11.566;2023-06-01T14:56:28;29.12;30.57
63202;DHT22;49296;48.188;11.566;2023-06-01T14:58:56;29.46;30.50
63202;DHT22;49296;48.188;11.566;2023-06-01T15:01:23;29.19;30.49
63202;DHT22;49296;48.188;11.566;2023-06-01T15:03:50;29.27;30.64
63202;DHT22;49296;48.188;11.566;2023-06-01T15:06:17;29.20;31.37
63202;DHT22;49296;48.188;11.566;2023-06-01T15:08:46;29.75;32.36
63202;DHT22;49296;48.188;11.566;2023-06-01T15:11:15;30.05;32.06
63202;DHT22;49296;48.188;11.566;2023-06-01T15:13:41;30.06;31.08
63202;DHT22;49296;48.188;11.566;2023-06-01T15:16:09;30.24;30.69
63202;DHT22;49296;48.188;11.566;2023-06-01T15:18:36;29.54;31.38
63202;DHT22;49296;48.188;11.566;2023-06-01T15:21:03;29.05;31.96
63202;DHT22;49296;48.188;11.566;2023-06-01T15:23:30;28.88;32.33
63202;DHT22;49296;48.188;11.566;2023-06-01T15:25:57;28.82;32.58
63202;DHT22;49296;48.188;11.566;2023-06-01T15:28:24;29.22;33.38